createdAt,value
2022-09-07T00:00:53.273Z,95049.09
2022-09-07T00:03:21.717Z,95047.72
2022-09-07T00:05:51.633Z,95037.69
2022-09-07T00:08:24.723Z,95037.22
2022-09-07T00:10:58.322Z,95037.47
2022-09-07T00:13:29.071Z,95028.91
2022-09-07T00:15:56.843Z,95032.59
2022-09-07T00:18:24.608Z,95032.06
2022-09-07T00:21:00.400Z,95027.78
2022-09-07T00:23:29.487Z,95028.81
2022-09-07T00:26:19.461Z,95029.28
2022-09-07T00:28:47.852Z,95031.38
2022-09-07T00:31:21.907Z,95021.69
2022-09-07T00:33:51.140Z,95027.53
2022-09-07T00:36:20.348Z,95024.34
2022-09-07T00:38:47.984Z,95025.59
2022-09-07T00:41:16.592Z,95022.38
2022-09-07T00:43:54.474Z,95026.75
2022-09-07T00:46:28.632Z,95021.44
2022-09-07T00:49:16.764Z,95021.13
2022-09-07T00:51:53.115Z,95011.78
2022-09-07T00:54:25.983Z,95006.97
2022-09-07T00:56:54.357Z,95013.63
2022-09-07T00:59:28.191Z,95018.38
2022-09-07T01:01:55.555Z,95013.31
2022-09-07T01:04:23.824Z,95009.03
2022-09-07T01:06:51.521Z,95002.91
2022-09-07T01:09:23.038Z,95014.34
2022-09-07T01:11:52.140Z,95012.97
2022-09-07T01:14:29.312Z,95015.03
2022-09-07T01:17:39.324Z,95024.03
2022-09-07T01:20:50.703Z,95017.81
2022-09-07T01:23:44.952Z,95019.31
2022-09-07T01:26:33.121Z,95009.75
2022-09-07T01:29:20.993Z,95004.09
2022-09-07T01:32:14.059Z,95003.53
2022-09-07T01:34:44.351Z,95006.63
2022-09-07T01:37:37.812Z,95007.13
2022-09-07T01:40:20.977Z,95001.22
2022-09-07T01:43:02.549Z,94998.00
2022-09-07T01:45:35.913Z,94998.25
2022-09-07T01:48:09.404Z,95000.09
2022-09-07T01:50:58.084Z,94998.69
2022-09-07T01:53:54.039Z,94993.88
2022-09-07T01:56:47.446Z,94995.38
2022-09-07T01:59:29.729Z,94999.84
2022-09-07T02:02:16.654Z,94996.06
2022-09-07T02:05:09.744Z,94998.94
2022-09-07T02:07:46.772Z,95003.44
2022-09-07T02:10:21.540Z,94993.31
2022-09-07T02:13:02.146Z,94995.59
2022-09-07T02:15:56.311Z,94999.50
2022-09-07T02:18:26.858Z,95001.59
2022-09-07T02:20:57.869Z,94997.56
2022-09-07T02:23:32.985Z,94993.28
2022-09-07T02:26:07.992Z,94998.84
2022-09-07T02:28:38.411Z,94996.38
2022-09-07T02:31:06.305Z,94992.59
2022-09-07T02:33:34.107Z,94999.72
2022-09-07T02:36:04.427Z,94998.13
2022-09-07T02:38:33.659Z,94994.88
2022-09-07T02:41:03.240Z,94988.97
2022-09-07T02:43:32.044Z,94994.28
2022-09-07T02:46:22.255Z,95000.84
2022-09-07T02:49:24.108Z,94997.84
2022-09-07T02:52:30.714Z,94996.72
2022-09-07T02:55:34.979Z,94999.25
2022-09-07T02:58:32.731Z,94997.63
2022-09-07T03:01:19.125Z,94992.75
2022-09-07T03:04:14.853Z,94986.09
2022-09-07T03:07:03.785Z,94978.81
2022-09-07T03:09:41.555Z,94985.28
2022-09-07T03:12:09.822Z,94974.91
2022-09-07T03:14:41.277Z,94988.72
2022-09-07T03:17:09.484Z,94990.59
2022-09-07T03:19:37.120Z,94986.09
2022-09-07T03:22:05.628Z,94984.81
2022-09-07T03:24:32.692Z,94979.53
2022-09-07T03:27:00.631Z,94969.75
2022-09-07T03:29:28.177Z,94972.41
2022-09-07T03:31:55.298Z,94966.50
2022-09-07T03:34:25.269Z,94968.13
2022-09-07T03:36:52.639Z,94967.91
2022-09-07T03:39:22.625Z,94963.19
2022-09-07T03:41:50.643Z,94973.53
2022-09-07T03:44:17.560Z,94976.78
2022-09-07T03:46:44.677Z,94973.06
2022-09-07T03:49:11.879Z,94972.03
2022-09-07T03:51:39.621Z,94975.03
2022-09-07T03:54:07.127Z,94980.94
2022-09-07T03:56:34.484Z,94968.94
2022-09-07T03:59:01.925Z,94973.78
2022-09-07T04:01:29.409Z,94982.91
2022-09-07T04:04:02.802Z,94984.16
2022-09-07T04:06:30.601Z,94986.34
2022-09-07T04:09:02.010Z,94978.38
2022-09-07T04:11:29.012Z,94974.59
2022-09-07T04:13:56.030Z,94966.06
2022-09-07T04:16:26.366Z,94968.25
2022-09-07T04:18:58.908Z,94964.78
2022-09-07T04:21:28.216Z,94987.16
2022-09-07T04:23:55.723Z,94990.59
2022-09-07T04:26:36.207Z,94991.41
2022-09-07T04:29:04.706Z,94989.81
2022-09-07T04:31:34.748Z,94992.66
2022-09-07T04:34:03.175Z,95004.66
2022-09-07T04:36:30.318Z,95008.34
2022-09-07T04:39:03.911Z,95007.53
2022-09-07T04:41:33.361Z,95007.75
2022-09-07T04:44:03.336Z,95013.66
2022-09-07T04:46:36.107Z,95013.66
2022-09-07T04:49:08.364Z,95015.72
2022-09-07T04:51:36.492Z,95015.72
2022-09-07T04:54:04.637Z,95013.06
2022-09-07T04:56:32.922Z,95012.28
2022-09-07T04:59:01.747Z,95017.34
2022-09-07T05:01:29.566Z,95011.78
2022-09-07T05:04:00.173Z,95006.16
2022-09-07T05:06:27.483Z,95009.16
2022-09-07T05:08:55.242Z,95017.47
2022-09-07T05:11:28.684Z,95016.44
2022-09-07T05:13:58.290Z,95024.16
2022-09-07T05:16:26.105Z,95020.47
2022-09-07T05:19:02.048Z,95017.03
2022-09-07T05:21:32.781Z,95020.81
2022-09-07T05:24:01.488Z,95022.44
2022-09-07T05:26:33.159Z,95024.84
2022-09-07T05:31:51.866Z,95027.63
2022-09-07T05:34:34.526Z,95022.09
2022-09-07T05:37:02.208Z,95016.22
2022-09-07T05:39:30.378Z,95020.94
2022-09-07T05:41:59.832Z,95012.88
2022-09-07T05:47:09.222Z,95017.13
2022-09-07T05:49:36.284Z,95014.34
2022-09-07T05:52:03.929Z,95014.50
2022-09-07T05:54:30.923Z,95014.59
2022-09-07T05:56:58.478Z,95010.41
2022-09-07T05:59:25.560Z,95009.72
2022-09-07T06:01:52.644Z,95012.25
2022-09-07T06:04:19.804Z,95015.81
2022-09-07T06:06:59.310Z,95022.63
2022-09-07T06:09:34.395Z,95016.59
2022-09-07T06:12:05.264Z,95021.31
2022-09-07T06:14:33.555Z,95020.94
2022-09-07T06:17:00.776Z,95020.25
2022-09-07T06:19:27.973Z,95025.66
2022-09-07T06:21:54.974Z,95028.19
2022-09-07T06:24:22.123Z,95029.31
2022-09-07T06:26:49.173Z,95028.94
2022-09-07T06:29:17.552Z,95027.97
2022-09-07T06:34:31.853Z,95031.47
2022-09-07T06:36:59.097Z,95014.34
2022-09-07T06:39:26.247Z,95023.84
2022-09-07T06:42:00.491Z,95018.47
2022-09-07T06:44:31.489Z,95017.13
2022-09-07T06:49:29.041Z,95020.72
2022-09-07T06:51:56.136Z,95021.19
2022-09-07T06:57:10.304Z,95007.41
2022-09-07T06:59:38.147Z,95008.91
2022-09-07T07:02:07.078Z,95004.78
2022-09-07T07:04:39.357Z,95001.69
2022-09-07T07:07:12.107Z,95005.75
2022-09-07T07:09:39.700Z,95002.91
2022-09-07T07:12:06.828Z,95000.59
2022-09-07T07:14:36.433Z,95003.34
2022-09-07T07:17:05.904Z,95001.84
2022-09-07T07:19:33.041Z,95003.00
2022-09-07T07:22:36.008Z,94998.56
2022-09-07T07:24:47.563Z,95005.63
2022-09-07T07:27:14.693Z,95002.75
2022-09-07T07:29:41.760Z,95007.09
2022-09-07T07:32:08.660Z,95010.34
2022-09-07T07:34:35.720Z,95010.44
2022-09-07T07:37:02.859Z,95018.22
2022-09-07T07:42:16.959Z,95020.66
2022-09-07T07:44:43.980Z,95028.69
2022-09-07T07:47:11.058Z,95029.25
2022-09-07T07:49:38.459Z,95022.59
2022-09-07T07:54:53.340Z,95021.53
2022-09-07T07:57:20.516Z,95032.22
2022-09-07T07:59:47.426Z,95026.88
2022-09-07T08:02:17.034Z,95031.41
2022-09-07T08:04:44.435Z,95035.13
2022-09-07T08:07:15.855Z,95033.78
2022-09-07T08:09:46.601Z,95041.28
2022-09-07T08:12:20.066Z,95038.34
2022-09-07T08:14:48.442Z,95036.75
2022-09-07T08:17:17.639Z,95036.81
2022-09-07T08:19:45.346Z,95042.72
2022-09-07T08:22:13.036Z,95030.22
2022-09-07T08:24:40.476Z,95027.06
2022-09-07T08:27:08.014Z,95032.72
2022-09-07T08:29:35.720Z,95035.69
2022-09-07T08:32:06.439Z,95013.81
2022-09-07T08:34:36.704Z,95013.06
2022-09-07T08:37:04.205Z,95013.63
2022-09-07T08:39:31.240Z,95013.63
2022-09-07T08:42:06.036Z,95017.69
2022-09-07T08:44:45.997Z,95015.59
2022-09-07T08:47:43.671Z,95015.91
2022-09-07T08:50:59.858Z,95014.06
2022-09-07T08:53:29.067Z,95014.31
2022-09-07T08:56:05.049Z,95016.75
2022-09-07T08:58:49.088Z,95021.84
2022-09-07T09:01:42.330Z,95018.91
2022-09-07T09:05:16.300Z,95017.56
2022-09-07T09:08:09.937Z,95018.63
2022-09-07T09:10:53.474Z,95019.69
2022-09-07T09:13:47.920Z,95020.19
2022-09-07T09:16:36.160Z,95021.22
2022-09-07T09:19:39.432Z,95026.25
2022-09-07T09:22:21.327Z,95021.16
2022-09-07T09:24:53.708Z,95015.75
2022-09-07T09:27:20.693Z,95017.31
2022-09-07T09:29:48.537Z,95007.59
2022-09-07T09:32:41.790Z,95022.25
2022-09-07T09:35:29.885Z,95014.97
2022-09-07T09:37:57.813Z,95018.13
2022-09-07T09:40:30.957Z,95016.16
2022-09-07T09:43:18.257Z,95021.44
2022-09-07T09:48:40.504Z,95015.38
2022-09-07T09:54:07.641Z,94997.44
2022-09-07T09:56:44.766Z,94991.69
2022-09-07T10:05:43.336Z,94991.84
2022-09-07T10:08:24.663Z,94989.31
2022-09-07T10:11:00.645Z,94978.72
2022-09-07T10:13:31.940Z,94981.31
2022-09-07T10:16:03.763Z,94972.63
2022-09-07T10:18:55.479Z,94983.44
2022-09-07T10:21:26.217Z,94977.91
2022-09-07T10:23:59.436Z,94977.47
2022-09-07T10:26:36.569Z,94970.84
2022-09-07T10:29:24.813Z,94972.31
2022-09-07T10:32:22.394Z,94972.97
2022-09-07T10:34:56.375Z,94963.31
2022-09-07T10:38:02.596Z,94959.16
2022-09-07T10:40:58.336Z,94960.56
2022-09-07T10:43:58.406Z,94960.16
2022-09-07T10:46:57.837Z,94964.09
2022-09-07T10:50:21.899Z,94961.31
2022-09-07T10:52:48.878Z,94959.03
2022-09-07T10:55:26.434Z,94958.03
2022-09-07T11:01:35.195Z,94951.22
2022-09-07T11:04:31.910Z,94951.81
2022-09-07T11:07:33.845Z,94954.00
2022-09-07T11:10:25.466Z,94941.34
2022-09-07T11:12:58.041Z,94940.69
2022-09-07T11:15:31.461Z,94938.63
2022-09-07T11:18:03.974Z,94935.34
2022-09-07T11:20:45.714Z,94936.31
2022-09-07T11:24:11.935Z,94928.38
2022-09-07T11:26:56.692Z,94917.66
2022-09-07T11:29:48.169Z,94917.25
2022-09-07T11:32:23.921Z,94919.38
2022-09-07T11:35:01.407Z,94917.50
2022-09-07T11:37:51.029Z,94918.94
2022-09-07T11:40:49.225Z,94913.22
2022-09-07T11:43:25.900Z,94908.22
2022-09-07T11:45:58.740Z,94913.06
2022-09-07T11:48:45.996Z,94913.28
2022-09-07T11:51:40.239Z,94912.00
2022-09-07T11:54:33.789Z,94897.19
2022-09-07T11:57:39.033Z,94889.16
2022-09-07T12:00:38.317Z,94894.53
2022-09-07T12:03:26.126Z,94896.03
2022-09-07T12:06:22.795Z,94896.88
2022-09-07T12:09:11.206Z,94892.22
2022-09-07T12:12:10.920Z,94903.84
2022-09-07T12:14:50.397Z,94907.72
2022-09-07T12:17:43.089Z,94898.28
2022-09-07T12:20:19.204Z,94890.66
2022-09-07T12:23:04.776Z,94876.97
2022-09-07T12:25:34.870Z,94881.13
2022-09-07T12:28:02.499Z,94885.38
2022-09-07T12:30:30.610Z,94880.22
2022-09-07T12:32:58.820Z,94873.94
2022-09-07T12:35:39.896Z,94875.75
2022-09-07T12:38:18.988Z,94883.00
2022-09-07T12:40:49.698Z,94869.75
2022-09-07T12:43:16.606Z,94869.22
2022-09-07T12:45:43.755Z,94875.28
2022-09-07T12:48:16.996Z,94881.47
2022-09-07T12:50:53.489Z,94880.59
2022-09-07T12:53:39.784Z,94877.91
2022-09-07T12:56:38.888Z,94883.97
2022-09-07T12:59:18.894Z,94895.81
2022-09-07T13:02:04.970Z,94904.06
2022-09-07T13:05:02.761Z,94898.44
2022-09-07T13:07:39.054Z,94885.16
2022-09-07T13:10:41.349Z,94869.94
2022-09-07T13:16:15.541Z,94909.38
2022-09-07T13:18:44.410Z,94924.81
2022-09-07T13:21:12.085Z,94936.53
2022-09-07T13:23:45.696Z,94937.97
2022-09-07T13:26:51.524Z,94925.97
2022-09-07T13:29:24.657Z,94940.19
2022-09-07T13:35:23.429Z,94947.72
2022-09-07T13:38:03.799Z,94964.88
2022-09-07T13:40:39.361Z,94967.41
2022-09-07T13:43:15.457Z,94988.13
2022-09-07T13:45:54.556Z,94996.59
2022-09-07T13:48:27.244Z,94986.06
2022-09-07T13:51:00.373Z,94968.50
2022-09-07T13:53:43.740Z,94965.38
2022-09-07T13:56:23.469Z,94964.94
2022-09-07T13:58:53.025Z,94956.97
2022-09-07T14:01:26.408Z,94956.56
2022-09-07T14:04:07.420Z,94961.44
2022-09-07T14:06:37.360Z,94952.06
2022-09-07T14:09:14.448Z,94936.34
2022-09-07T14:11:54.110Z,94927.34
2022-09-07T14:14:26.125Z,94921.59
2022-09-07T14:17:10.437Z,94917.72
2022-09-07T14:19:41.428Z,94926.66
2022-09-07T14:22:17.680Z,94923.31
2022-09-07T14:25:01.415Z,94921.53
2022-09-07T14:27:43.532Z,94912.25
2022-09-07T14:30:33.361Z,94914.47
2022-09-07T14:33:13.559Z,94910.56
2022-09-07T14:35:41.620Z,94913.84
2022-09-07T14:41:15.387Z,94921.75
2022-09-07T14:43:57.435Z,94914.34
2022-09-07T14:46:35.783Z,94897.50
2022-09-07T14:49:18.368Z,94889.47
2022-09-07T14:51:48.405Z,94896.41
2022-09-07T14:54:34.251Z,94884.56
2022-09-07T14:57:32.134Z,94883.44
2022-09-07T15:00:30.495Z,94877.72
2022-09-07T15:02:57.439Z,94871.75
2022-09-07T15:05:29.887Z,94868.50
2022-09-07T15:08:02.827Z,94853.94
2022-09-07T15:10:36.873Z,94843.44
2022-09-07T15:13:20.206Z,94857.00
2022-09-07T15:16:02.429Z,94849.94
2022-09-07T15:19:05.602Z,94848.56
2022-09-07T15:21:36.538Z,94847.19
2022-09-07T15:24:04.577Z,94846.63
2022-09-07T15:29:29.386Z,94843.09
2022-09-07T15:32:03.258Z,94843.34
2022-09-07T15:34:32.228Z,94837.97
2022-09-07T15:37:00.224Z,94837.13
2022-09-07T15:39:34.388Z,94840.59
2022-09-07T15:42:59.514Z,94837.91
2022-09-07T15:44:50.402Z,94837.41
2022-09-07T15:50:08.930Z,94846.22
2022-09-07T15:52:35.949Z,94839.78
2022-09-07T15:55:03.416Z,94835.22
2022-09-07T16:00:19.514Z,94836.31
2022-09-07T16:03:05.658Z,94838.72
2022-09-07T16:05:34.738Z,94840.06
2022-09-07T16:10:55.363Z,94838.50
2022-09-07T16:13:24.256Z,94847.16
2022-09-07T16:15:51.862Z,94829.03
2022-09-07T16:18:19.506Z,94841.34
2022-09-07T16:20:47.946Z,94841.91
2022-09-07T16:23:19.642Z,94837.38
2022-09-07T16:25:59.573Z,94833.69
2022-09-07T16:28:27.373Z,94832.88
2022-09-07T16:30:56.226Z,94829.69
2022-09-07T16:33:31.568Z,94828.31
2022-09-07T16:36:12.021Z,94820.56
2022-09-07T16:38:44.843Z,94817.59
2022-09-07T16:41:19.998Z,94817.31
2022-09-07T16:43:47.383Z,94814.88
2022-09-07T16:46:18.744Z,94807.91
2022-09-07T16:48:45.842Z,94804.19
2022-09-07T16:51:16.553Z,94813.03
2022-09-07T16:53:43.933Z,94806.41
2022-09-07T16:56:17.523Z,94807.81
2022-09-07T16:58:51.355Z,94813.50
2022-09-07T17:01:21.838Z,94804.75
2022-09-07T17:03:49.883Z,94821.44
2022-09-07T17:06:19.210Z,94824.22
2022-09-07T17:08:47.187Z,94825.63
2022-09-07T17:11:21.883Z,94828.91
2022-09-07T17:13:49.517Z,94823.31
2022-09-07T17:16:24.203Z,94814.53
2022-09-07T17:21:41.789Z,94822.38
2022-09-07T17:24:11.035Z,94816.78
2022-09-07T17:26:38.644Z,94819.75
2022-09-07T17:29:07.315Z,94822.38
2022-09-07T17:34:25.438Z,94819.72
2022-09-07T17:36:52.434Z,94826.41
2022-09-07T17:39:20.161Z,94827.47
2022-09-07T17:41:52.570Z,94834.66
2022-09-07T17:44:21.559Z,94825.53
2022-09-07T17:46:48.762Z,94828.75
2022-09-07T17:49:17.005Z,94826.59
2022-09-07T17:51:44.828Z,94833.75
2022-09-07T17:54:15.566Z,94829.72
2022-09-07T17:56:42.809Z,94842.25
2022-09-07T18:01:58.965Z,94847.28
2022-09-07T18:04:26.263Z,94852.03
2022-09-07T18:06:54.493Z,94861.09
2022-09-07T18:09:22.046Z,94857.59
2022-09-07T18:11:50.378Z,94852.22
2022-09-07T18:14:19.364Z,94852.44
2022-09-07T18:16:49.348Z,94856.97
2022-09-07T18:19:16.925Z,94858.78
2022-09-07T18:21:45.114Z,94862.22
2022-09-07T18:24:22.178Z,94852.84
2022-09-07T18:26:52.808Z,94855.50
2022-09-07T18:29:29.241Z,94857.31
2022-09-07T18:31:58.900Z,94849.28
2022-09-07T18:34:26.536Z,94855.38
2022-09-07T18:36:55.226Z,94854.84
2022-09-07T18:39:22.769Z,94854.03
2022-09-07T18:41:49.741Z,94848.41
2022-09-07T18:47:06.366Z,94846.00
2022-09-07T18:49:33.255Z,94846.75
2022-09-07T18:54:47.785Z,94843.22
2022-09-07T18:57:15.484Z,94856.03
2022-09-07T18:59:43.117Z,94849.31
2022-09-07T19:02:10.816Z,94843.72
2022-09-07T19:07:29.824Z,94833.81
2022-09-07T19:09:58.087Z,94837.53
2022-09-07T19:12:25.123Z,94821.75
2022-09-07T19:14:52.168Z,94836.69
2022-09-07T19:17:19.808Z,94838.25
2022-09-07T19:19:48.659Z,94835.03
2022-09-07T19:22:15.777Z,94842.72
2022-09-07T19:24:43.202Z,94827.28
2022-09-07T19:27:10.475Z,94824.84
2022-09-07T19:29:37.628Z,94828.81
2022-09-07T19:32:05.238Z,94823.19
2022-09-07T19:34:35.029Z,94824.81
2022-09-07T19:37:03.792Z,94823.19
2022-09-07T19:39:32.066Z,94817.56
2022-09-07T19:41:59.389Z,94825.81
2022-09-07T19:44:27.864Z,94813.81
2022-09-07T19:46:55.413Z,94813.03
2022-09-07T19:49:22.745Z,94806.06
2022-09-07T19:51:51.857Z,94801.50
2022-09-07T19:54:19.347Z,94804.47
2022-09-07T19:56:46.439Z,94804.19
2022-09-07T19:59:14.326Z,94809.53
2022-09-07T20:01:45.960Z,94802.38
2022-09-07T20:04:20.282Z,94802.59
2022-09-07T20:06:50.371Z,94800.75
2022-09-07T20:09:19.984Z,94785.53
2022-09-07T20:11:47.936Z,94794.88
2022-09-07T20:14:16.679Z,94790.03
2022-09-07T20:16:44.415Z,94799.09
2022-09-07T20:19:14.606Z,94794.00
2022-09-07T20:21:42.507Z,94791.03
2022-09-07T20:24:12.480Z,94787.28
2022-09-07T20:26:39.542Z,94788.59
2022-09-07T20:31:54.704Z,94789.63
2022-09-07T20:34:21.838Z,94800.50
2022-09-07T20:36:52.716Z,94796.72
2022-09-07T20:39:23.365Z,94789.25
2022-09-07T20:41:51.105Z,94782.03
2022-09-07T20:44:18.449Z,94782.53
2022-09-07T20:46:45.605Z,94773.19
2022-09-07T20:49:12.640Z,94773.44
2022-09-07T20:51:40.297Z,94773.94
2022-09-07T20:54:07.425Z,94775.81
2022-09-07T20:56:34.597Z,94764.59
2022-09-07T20:59:02.832Z,94772.06
2022-09-07T21:01:32.596Z,94762.94
2022-09-07T21:04:01.002Z,94758.16
2022-09-07T21:06:29.773Z,94768.22
2022-09-07T21:08:57.719Z,94771.38
2022-09-07T21:11:28.632Z,94769.22
2022-09-07T21:14:06.240Z,94758.03
2022-09-07T21:16:35.350Z,94753.22
2022-09-07T21:19:05.015Z,94750.78
2022-09-07T21:21:40.304Z,94754.25
2022-09-07T21:24:21.187Z,94755.56
2022-09-07T21:26:50.034Z,94748.91
2022-09-07T21:29:22.373Z,94748.91
2022-09-07T21:31:51.979Z,94747.50
2022-09-07T21:34:19.203Z,94745.84
2022-09-07T21:36:46.271Z,94745.78
2022-09-07T21:39:14.976Z,94764.13
2022-09-07T21:41:43.417Z,94763.00
2022-09-07T21:44:16.284Z,94761.66
2022-09-07T21:46:43.832Z,94760.06
2022-09-07T21:49:11.430Z,94753.13
2022-09-07T21:51:38.849Z,94756.59
2022-09-07T21:54:06.422Z,94756.03
2022-09-07T21:56:33.740Z,94750.97
2022-09-07T21:59:02.472Z,94753.84
2022-09-07T22:01:31.693Z,94748.81
2022-09-07T22:04:04.914Z,94751.72
2022-09-07T22:06:33.238Z,94749.31
2022-09-07T22:09:01.981Z,94741.03
2022-09-07T22:11:30.523Z,94743.91
2022-09-07T22:14:01.847Z,94740.47
2022-09-07T22:16:30.324Z,94733.22
2022-09-07T22:18:57.575Z,94739.38
2022-09-07T22:21:28.345Z,94734.53
2022-09-07T22:23:58.993Z,94730.50
2022-09-07T22:26:29.288Z,94722.22
2022-09-07T22:28:56.692Z,94718.22
2022-09-07T22:31:31.039Z,94709.69
2022-09-07T22:34:00.714Z,94707.28
2022-09-07T22:36:34.925Z,94690.72
2022-09-07T22:39:10.207Z,94700.88
2022-09-07T22:41:39.403Z,94700.88
2022-09-07T22:44:10.809Z,94695.00
2022-09-07T22:46:40.480Z,94686.22
2022-09-07T22:49:08.882Z,94674.78
2022-09-07T22:51:35.748Z,94664.44
2022-09-07T22:54:02.959Z,94662.31
2022-09-07T22:56:32.647Z,94660.47
2022-09-07T22:59:03.937Z,94644.53
2022-09-07T23:01:32.291Z,94636.56
2022-09-07T23:04:01.012Z,94630.22
2022-09-07T23:06:35.857Z,94624.34
2022-09-07T23:09:16.177Z,94615.63
2022-09-07T23:11:45.317Z,94611.94
2022-09-07T23:14:19.466Z,94610.06
2022-09-07T23:16:47.300Z,94614.91
2022-09-07T23:19:16.785Z,94611.16
2022-09-07T23:21:44.597Z,94607.47
2022-09-07T23:24:15.205Z,94607.25
2022-09-07T23:26:42.803Z,94609.06
2022-09-07T23:29:14.631Z,94616.78
2022-09-07T23:31:42.560Z,94617.88
2022-09-07T23:34:10.152Z,94620.00
2022-09-07T23:36:37.696Z,94620.31
2022-09-07T23:39:05.120Z,94615.31
2022-09-07T23:41:32.283Z,94618.25
2022-09-07T23:43:59.247Z,94615.91
2022-09-07T23:46:26.542Z,94610.91
2022-09-07T23:48:53.849Z,94609.59
2022-09-07T23:51:24.303Z,94609.91
2022-09-07T23:53:52.637Z,94600.06
2022-09-07T23:56:20.112Z,94608.09
2022-09-07T23:58:47.076Z,94611.28
